sensor_id;sensor_type;location;lat;lon;timestamp;P1;durP1;ratioP1;P2;durP2;ratioP2
36441;SDS011;64346;50.820;16.274;2023-07-13T00:01:03;12.18;;;5.68;;
36441;SDS011;64346;50.820;16.274;2023-07-13T00:03:41;10.32;;;5.82;;
36441;SDS011;64346;50.820;16.274;2023-07-13T00:06:09;10.63;;;5.60;;
36441;SDS011;64346;50.820;16.274;2023-07-13T00:08:39;10.70;;;6.13;;
36441;SDS011;64346;50.820;16.274;2023-07-13T00:11:09;12.27;;;7.43;;
36441;SDS011;64346;50.820;16.274;2023-07-13T00:13:36;9.05;;;5.30;;
36441;SDS011;64346;50.820;16.274;2023-07-13T00:16:03;10.73;;;5.72;;
36441;SDS011;64346;50.820;16.274;2023-07-13T00:18:34;8.98;;;4.80;;
36441;SDS011;64346;50.820;16.274;2023-07-13T00:21:01;9.00;;;5.55;;
36441;SDS011;64346;50.820;16.274;2023-07-13T00:23:29;8.80;;;4.63;;
36441;SDS011;64346;50.820;16.274;2023-07-13T00:25:56;11.80;;;4.70;;
36441;SDS011;64346;50.820;16.274;2023-07-13T00:28:23;11.13;;;4.57;;
36441;SDS011;64346;50.820;16.274;2023-07-13T00:30:53;8.05;;;4.43;;
36441;SDS011;64346;50.820;16.274;2023-07-13T00:33:21;8.95;;;5.03;;
36441;SDS011;64346;50.820;16.274;2023-07-13T00:35:49;10.38;;;5.30;;
36441;SDS011;64346;50.820;16.274;2023-07-13T00:38:20;10.23;;;5.22;;
36441;SDS011;64346;50.820;16.274;2023-07-13T00:40:50;8.95;;;5.15;;
36441;SDS011;64346;50.820;16.274;2023-07-13T00:43:19;12.02;;;5.32;;
36441;SDS011;64346;50.820;16.274;2023-07-13T00:48:25;18.10;;;5.20;;
36441;SDS011;64346;50.820;16.274;2023-07-13T00:50:58;10.43;;;5.05;;
36441;SDS011;64346;50.820;16.274;2023-07-13T00:53:28;11.10;;;5.32;;
36441;SDS011;64346;50.820;16.274;2023-07-13T00:55:58;8.88;;;4.97;;
36441;SDS011;64346;50.820;16.274;2023-07-13T00:58:28;11.13;;;5.38;;
36441;SDS011;64346;50.820;16.274;2023-07-13T01:00:56;10.05;;;5.40;;
36441;SDS011;64346;50.820;16.274;2023-07-13T01:03:25;8.95;;;4.82;;
36441;SDS011;64346;50.820;16.274;2023-07-13T01:05:53;9.52;;;5.00;;
36441;SDS011;64346;50.820;16.274;2023-07-13T01:08:22;9.18;;;5.10;;
36441;SDS011;64346;50.820;16.274;2023-07-13T01:10:51;11.65;;;5.55;;
36441;SDS011;64346;50.820;16.274;2023-07-13T01:13:24;8.98;;;5.35;;
36441;SDS011;64346;50.820;16.274;2023-07-13T01:15:52;10.20;;;5.57;;
36441;SDS011;64346;50.820;16.274;2023-07-13T01:18:23;13.10;;;4.50;;
36441;SDS011;64346;50.820;16.274;2023-07-13T01:21:02;8.15;;;4.25;;
36441;SDS011;64346;50.820;16.274;2023-07-13T01:23:31;8.70;;;4.28;;
36441;SDS011;64346;50.820;16.274;2023-07-13T01:25:59;9.75;;;4.93;;
36441;SDS011;64346;50.820;16.274;2023-07-13T01:28:27;8.02;;;4.30;;
36441;SDS011;64346;50.820;16.274;2023-07-13T01:30:56;9.60;;;4.20;;
36441;SDS011;64346;50.820;16.274;2023-07-13T01:33:25;8.02;;;3.85;;
36441;SDS011;64346;50.820;16.274;2023-07-13T01:35:53;8.65;;;3.70;;
36441;SDS011;64346;50.820;16.274;2023-07-13T01:38:23;6.80;;;3.50;;
36441;SDS011;64346;50.820;16.274;2023-07-13T01:40:51;7.25;;;3.35;;
36441;SDS011;64346;50.820;16.274;2023-07-13T01:43:19;6.30;;;3.58;;
36441;SDS011;64346;50.820;16.274;2023-07-13T01:45:49;6.70;;;3.35;;
36441;SDS011;64346;50.820;16.274;2023-07-13T01:48:16;8.82;;;3.75;;
36441;SDS011;64346;50.820;16.274;2023-07-13T01:50:44;5.85;;;3.28;;
36441;SDS011;64346;50.820;16.274;2023-07-13T01:53:11;7.28;;;3.95;;
36441;SDS011;64346;50.820;16.274;2023-07-13T01:55:39;6.45;;;3.22;;
36441;SDS011;64346;50.820;16.274;2023-07-13T01:58:06;6.60;;;3.55;;
36441;SDS011;64346;50.820;16.274;2023-07-13T02:00:40;6.35;;;3.08;;
36441;SDS011;64346;50.820;16.274;2023-07-13T02:03:07;7.85;;;3.78;;
36441;SDS011;64346;50.820;16.274;2023-07-13T02:05:34;5.90;;;3.35;;
36441;SDS011;64346;50.820;16.274;2023-07-13T02:08:02;7.47;;;3.67;;
36441;SDS011;64346;50.820;16.274;2023-07-13T02:10:29;9.43;;;3.90;;
36441;SDS011;64346;50.820;16.274;2023-07-13T02:12:57;6.90;;;3.40;;
36441;SDS011;64346;50.820;16.274;2023-07-13T02:15:26;7.78;;;3.85;;
36441;SDS011;64346;50.820;16.274;2023-07-13T02:17:54;6.90;;;3.30;;
36441;SDS011;64346;50.820;16.274;2023-07-13T02:20:21;6.55;;;3.42;;
36441;SDS011;64346;50.820;16.274;2023-07-13T02:22:48;7.10;;;3.75;;
36441;SDS011;64346;50.820;16.274;2023-07-13T02:25:16;8.80;;;3.95;;
36441;SDS011;64346;50.820;16.274;2023-07-13T02:27:43;7.65;;;3.78;;
36441;SDS011;64346;50.820;16.274;2023-07-13T02:30:11;7.22;;;3.70;;
36441;SDS011;64346;50.820;16.274;2023-07-13T02:32:38;6.97;;;3.63;;
36441;SDS011;64346;50.820;16.274;2023-07-13T02:35:05;8.27;;;3.50;;
36441;SDS011;64346;50.820;16.274;2023-07-13T02:37:35;7.93;;;3.83;;
36441;SDS011;64346;50.820;16.274;2023-07-13T02:40:03;5.47;;;3.10;;
36441;SDS011;64346;50.820;16.274;2023-07-13T02:42:30;9.02;;;3.40;;
36441;SDS011;64346;50.820;16.274;2023-07-13T02:44:58;6.70;;;3.42;;
36441;SDS011;64346;50.820;16.274;2023-07-13T02:47:27;5.78;;;3.15;;
36441;SDS011;64346;50.820;16.274;2023-07-13T02:49:55;14.25;;;8.43;;
36441;SDS011;64346;50.820;16.274;2023-07-13T02:52:22;8.65;;;4.78;;
36441;SDS011;64346;50.820;16.274;2023-07-13T02:54:49;7.32;;;3.53;;
36441;SDS011;64346;50.820;16.274;2023-07-13T02:57:19;7.50;;;3.67;;
36441;SDS011;64346;50.820;16.274;2023-07-13T02:59:47;8.65;;;3.92;;
36441;SDS011;64346;50.820;16.274;2023-07-13T03:02:14;5.20;;;3.00;;
36441;SDS011;64346;50.820;16.274;2023-07-13T03:04:42;9.10;;;3.10;;
36441;SDS011;64346;50.820;16.274;2023-07-13T03:07:09;6.93;;;3.30;;
36441;SDS011;64346;50.820;16.274;2023-07-13T03:09:37;8.40;;;3.53;;
36441;SDS011;64346;50.820;16.274;2023-07-13T03:12:04;9.43;;;3.90;;
36441;SDS011;64346;50.820;16.274;2023-07-13T03:14:32;9.02;;;3.30;;
36441;SDS011;64346;50.820;16.274;2023-07-13T03:16:59;9.85;;;4.75;;
36441;SDS011;64346;50.820;16.274;2023-07-13T03:19:27;8.63;;;3.33;;
36441;SDS011;64346;50.820;16.274;2023-07-13T03:21:54;6.88;;;3.63;;
36441;SDS011;64346;50.820;16.274;2023-07-13T03:24:21;4.80;;;3.00;;
36441;SDS011;64346;50.820;16.274;2023-07-13T03:26:49;6.97;;;3.17;;
36441;SDS011;64346;50.820;16.274;2023-07-13T03:29:16;10.25;;;3.25;;
36441;SDS011;64346;50.820;16.274;2023-07-13T03:31:43;8.50;;;3.42;;
36441;SDS011;64346;50.820;16.274;2023-07-13T03:34:13;9.43;;;3.45;;
36441;SDS011;64346;50.820;16.274;2023-07-13T03:36:40;12.85;;;4.32;;
36441;SDS011;64346;50.820;16.274;2023-07-13T03:39:08;8.18;;;3.40;;
36441;SDS011;64346;50.820;16.274;2023-07-13T03:41:38;11.35;;;4.55;;
36441;SDS011;64346;50.820;16.274;2023-07-13T03:44:07;10.30;;;3.80;;
36441;SDS011;64346;50.820;16.274;2023-07-13T03:46:35;6.93;;;3.33;;
36441;SDS011;64346;50.820;16.274;2023-07-13T03:49:03;10.88;;;4.10;;
36441;SDS011;64346;50.820;16.274;2023-07-13T03:51:31;10.25;;;4.90;;
36441;SDS011;64346;50.820;16.274;2023-07-13T03:54:01;10.38;;;4.13;;
36441;SDS011;64346;50.820;16.274;2023-07-13T03:56:29;11.23;;;5.25;;
36441;SDS011;64346;50.820;16.274;2023-07-13T03:58:57;11.90;;;4.78;;
36441;SDS011;64346;50.820;16.274;2023-07-13T04:01:24;10.18;;;4.57;;
36441;SDS011;64346;50.820;16.274;2023-07-13T04:03:52;11.02;;;4.53;;
36441;SDS011;64346;50.820;16.274;2023-07-13T04:06:23;7.50;;;3.95;;
36441;SDS011;64346;50.820;16.274;2023-07-13T04:08:56;9.30;;;4.03;;
36441;SDS011;64346;50.820;16.274;2023-07-13T04:11:26;14.48;;;5.45;;
36441;SDS011;64346;50.820;16.274;2023-07-13T04:13:57;9.90;;;5.18;;
36441;SDS011;64346;50.820;16.274;2023-07-13T04:16:25;9.05;;;4.60;;
36441;SDS011;64346;50.820;16.274;2023-07-13T04:18:54;9.00;;;4.05;;
36441;SDS011;64346;50.820;16.274;2023-07-13T04:21:21;10.00;;;3.78;;
36441;SDS011;64346;50.820;16.274;2023-07-13T04:23:49;7.70;;;3.53;;
36441;SDS011;64346;50.820;16.274;2023-07-13T04:26:16;11.38;;;4.18;;
36441;SDS011;64346;50.820;16.274;2023-07-13T04:28:44;12.77;;;4.50;;
36441;SDS011;64346;50.820;16.274;2023-07-13T04:31:11;6.43;;;3.50;;
36441;SDS011;64346;50.820;16.274;2023-07-13T04:33:38;9.68;;;4.18;;
36441;SDS011;64346;50.820;16.274;2023-07-13T04:36:06;10.52;;;4.03;;
36441;SDS011;64346;50.820;16.274;2023-07-13T04:38:35;8.77;;;3.80;;
36441;SDS011;64346;50.820;16.274;2023-07-13T04:41:08;7.70;;;3.70;;
36441;SDS011;64346;50.820;16.274;2023-07-13T04:43:38;9.95;;;4.32;;
36441;SDS011;64346;50.820;16.274;2023-07-13T04:46:08;13.05;;;4.80;;
36441;SDS011;64346;50.820;16.274;2023-07-13T04:48:39;12.52;;;7.10;;
36441;SDS011;64346;50.820;16.274;2023-07-13T04:51:09;10.07;;;4.25;;
36441;SDS011;64346;50.820;16.274;2023-07-13T04:53:37;8.52;;;4.30;;
36441;SDS011;64346;50.820;16.274;2023-07-13T04:56:04;9.07;;;4.35;;
36441;SDS011;64346;50.820;16.274;2023-07-13T04:58:32;7.65;;;3.83;;
36441;SDS011;64346;50.820;16.274;2023-07-13T05:01:00;8.43;;;3.67;;
36441;SDS011;64346;50.820;16.274;2023-07-13T05:03:29;9.93;;;5.25;;
36441;SDS011;64346;50.820;16.274;2023-07-13T05:05:58;11.52;;;4.72;;
36441;SDS011;64346;50.820;16.274;2023-07-13T05:08:27;10.88;;;5.28;;
36441;SDS011;64346;50.820;16.274;2023-07-13T05:10:54;13.20;;;5.00;;
36441;SDS011;64346;50.820;16.274;2023-07-13T05:13:25;11.43;;;5.45;;
36441;SDS011;64346;50.820;16.274;2023-07-13T05:16:00;9.60;;;4.63;;
36441;SDS011;64346;50.820;16.274;2023-07-13T05:18:33;6.80;;;3.67;;
36441;SDS011;64346;50.820;16.274;2023-07-13T05:21:04;6.05;;;2.85;;
36441;SDS011;64346;50.820;16.274;2023-07-13T05:23:33;4.95;;;2.97;;
36441;SDS011;64346;50.820;16.274;2023-07-13T05:26:01;9.52;;;3.95;;
36441;SDS011;64346;50.820;16.274;2023-07-13T05:28:34;9.20;;;4.15;;
36441;SDS011;64346;50.820;16.274;2023-07-13T05:31:03;9.38;;;3.60;;
36441;SDS011;64346;50.820;16.274;2023-07-13T05:33:32;13.32;;;5.57;;
36441;SDS011;64346;50.820;16.274;2023-07-13T05:36:00;9.15;;;5.05;;
36441;SDS011;64346;50.820;16.274;2023-07-13T05:38:28;8.23;;;4.65;;
36441;SDS011;64346;50.820;16.274;2023-07-13T05:40:58;10.88;;;4.10;;
36441;SDS011;64346;50.820;16.274;2023-07-13T05:43:28;11.20;;;5.70;;
36441;SDS011;64346;50.820;16.274;2023-07-13T05:45:56;13.23;;;7.45;;
36441;SDS011;64346;50.820;16.274;2023-07-13T05:48:24;11.55;;;4.00;;
36441;SDS011;64346;50.820;16.274;2023-07-13T05:50:57;6.03;;;2.85;;
36441;SDS011;64346;50.820;16.274;2023-07-13T05:53:24;5.93;;;2.80;;
36441;SDS011;64346;50.820;16.274;2023-07-13T05:55:56;8.40;;;3.33;;
36441;SDS011;64346;50.820;16.274;2023-07-13T05:58:28;7.03;;;3.40;;
36441;SDS011;64346;50.820;16.274;2023-07-13T06:01:02;6.32;;;3.00;;
36441;SDS011;64346;50.820;16.274;2023-07-13T06:03:32;6.18;;;2.97;;
36441;SDS011;64346;50.820;16.274;2023-07-13T06:06:00;6.18;;;3.17;;
36441;SDS011;64346;50.820;16.274;2023-07-13T06:08:27;5.90;;;3.22;;
36441;SDS011;64346;50.820;16.274;2023-07-13T06:10:55;6.15;;;3.20;;
36441;SDS011;64346;50.820;16.274;2023-07-13T06:13:32;7.55;;;3.17;;
36441;SDS011;64346;50.820;16.274;2023-07-13T06:16:04;8.70;;;3.47;;
36441;SDS011;64346;50.820;16.274;2023-07-13T06:18:34;9.40;;;3.88;;
36441;SDS011;64346;50.820;16.274;2023-07-13T06:21:09;7.93;;;3.40;;
36441;SDS011;64346;50.820;16.274;2023-07-13T06:23:42;10.25;;;4.03;;
36441;SDS011;64346;50.820;16.274;2023-07-13T06:26:11;8.73;;;3.60;;
36441;SDS011;64346;50.820;16.274;2023-07-13T06:28:39;12.60;;;5.15;;
36441;SDS011;64346;50.820;16.274;2023-07-13T06:31:07;8.40;;;4.22;;
36441;SDS011;64346;50.820;16.274;2023-07-13T06:33:37;10.65;;;5.35;;
36441;SDS011;64346;50.820;16.274;2023-07-13T06:36:07;7.55;;;3.70;;
36441;SDS011;64346;50.820;16.274;2023-07-13T06:38:36;10.45;;;4.03;;
36441;SDS011;64346;50.820;16.274;2023-07-13T06:41:04;8.40;;;3.78;;
36441;SDS011;64346;50.820;16.274;2023-07-13T06:43:35;8.70;;;3.85;;
36441;SDS011;64346;50.820;16.274;2023-07-13T06:46:05;7.57;;;3.40;;
36441;SDS011;64346;50.820;16.274;2023-07-13T06:48:34;6.35;;;3.53;;
36441;SDS011;64346;50.820;16.274;2023-07-13T06:51:02;13.38;;;4.95;;
36441;SDS011;64346;50.820;16.274;2023-07-13T06:53:30;10.85;;;4.43;;
36441;SDS011;64346;50.820;16.274;2023-07-13T06:55:58;11.80;;;5.90;;
36441;SDS011;64346;50.820;16.274;2023-07-13T06:58:28;8.55;;;4.57;;
36441;SDS011;64346;50.820;16.274;2023-07-13T07:00:57;8.57;;;4.00;;
36441;SDS011;64346;50.820;16.274;2023-07-13T07:03:24;7.00;;;3.40;;
36441;SDS011;64346;50.820;16.274;2023-07-13T07:05:52;7.30;;;3.35;;
36441;SDS011;64346;50.820;16.274;2023-07-13T07:08:19;10.88;;;4.03;;
36441;SDS011;64346;50.820;16.274;2023-07-13T07:10:47;7.75;;;3.47;;
36441;SDS011;64346;50.820;16.274;2023-07-13T07:13:14;15.00;;;9.45;;
36441;SDS011;64346;50.820;16.274;2023-07-13T07:15:41;21.77;;;12.95;;
36441;SDS011;64346;50.820;16.274;2023-07-13T07:18:08;10.95;;;4.88;;
36441;SDS011;64346;50.820;16.274;2023-07-13T07:20:36;6.60;;;3.15;;
36441;SDS011;64346;50.820;16.274;2023-07-13T07:23:04;8.57;;;3.60;;
36441;SDS011;64346;50.820;16.274;2023-07-13T07:25:33;7.82;;;3.10;;
36441;SDS011;64346;50.820;16.274;2023-07-13T07:28:04;6.30;;;3.15;;
36441;SDS011;64346;50.820;16.274;2023-07-13T07:30:34;8.43;;;3.75;;
36441;SDS011;64346;50.820;16.274;2023-07-13T07:33:04;8.27;;;3.75;;
36441;SDS011;64346;50.820;16.274;2023-07-13T07:35:32;6.28;;;3.47;;
36441;SDS011;64346;50.820;16.274;2023-07-13T07:38:04;6.07;;;3.70;;
36441;SDS011;64346;50.820;16.274;2023-07-13T07:40:32;9.93;;;4.60;;
36441;SDS011;64346;50.820;16.274;2023-07-13T07:43:09;6.57;;;3.30;;
36441;SDS011;64346;50.820;16.274;2023-07-13T07:45:39;5.72;;;3.17;;
36441;SDS011;64346;50.820;16.274;2023-07-13T07:48:06;7.90;;;3.17;;
36441;SDS011;64346;50.820;16.274;2023-07-13T07:50:36;5.78;;;2.90;;
36441;SDS011;64346;50.820;16.274;2023-07-13T07:53:04;5.63;;;2.75;;
36441;SDS011;64346;50.820;16.274;2023-07-13T07:55:33;6.05;;;2.90;;
36441;SDS011;64346;50.820;16.274;2023-07-13T07:58:04;5.68;;;2.92;;
36441;SDS011;64346;50.820;16.274;2023-07-13T08:01:01;5.38;;;2.40;;
36441;SDS011;64346;50.820;16.274;2023-07-13T08:03:34;5.35;;;2.70;;
36441;SDS011;64346;50.820;16.274;2023-07-13T08:06:05;4.68;;;2.50;;
36441;SDS011;64346;50.820;16.274;2023-07-13T08:08:35;6.72;;;3.50;;
36441;SDS011;64346;50.820;16.274;2023-07-13T08:11:05;5.95;;;2.97;;
36441;SDS011;64346;50.820;16.274;2023-07-13T08:13:52;5.20;;;3.25;;
36441;SDS011;64346;50.820;16.274;2023-07-13T08:16:22;5.03;;;3.35;;
36441;SDS011;64346;50.820;16.274;2023-07-13T08:18:49;4.65;;;2.80;;
36441;SDS011;64346;50.820;16.274;2023-07-13T08:21:17;5.20;;;2.75;;
36441;SDS011;64346;50.820;16.274;2023-07-13T08:23:45;5.75;;;2.90;;
36441;SDS011;64346;50.820;16.274;2023-07-13T08:26:13;5.43;;;2.80;;
36441;SDS011;64346;50.820;16.274;2023-07-13T08:28:40;8.07;;;3.92;;
36441;SDS011;64346;50.820;16.274;2023-07-13T08:31:08;8.45;;;4.45;;
36441;SDS011;64346;50.820;16.274;2023-07-13T08:33:38;4.55;;;2.22;;
36441;SDS011;64346;50.820;16.274;2023-07-13T08:36:05;5.80;;;2.58;;
36441;SDS011;64346;50.820;16.274;2023-07-13T08:38:35;6.93;;;2.80;;
36441;SDS011;64346;50.820;16.274;2023-07-13T08:41:09;6.38;;;2.72;;
36441;SDS011;64346;50.820;16.274;2023-07-13T08:43:42;5.15;;;2.60;;
36441;SDS011;64346;50.820;16.274;2023-07-13T08:46:20;7.20;;;2.85;;
36441;SDS011;64346;50.820;16.274;2023-07-13T08:48:59;7.95;;;4.53;;
36441;SDS011;64346;50.820;16.274;2023-07-13T08:54:12;4.95;;;1.83;;
36441;SDS011;64346;50.820;16.274;2023-07-13T08:56:56;3.13;;;2.03;;
36441;SDS011;64346;50.820;16.274;2023-07-13T08:59:27;5.28;;;2.40;;
36441;SDS011;64346;50.820;16.274;2023-07-13T09:04:41;2.35;;;1.58;;
36441;SDS011;64346;50.820;16.274;2023-07-13T09:07:30;4.97;;;2.05;;
36441;SDS011;64346;50.820;16.274;2023-07-13T09:15:43;4.05;;;1.90;;
36441;SDS011;64346;50.820;16.274;2023-07-13T09:20:49;3.78;;;1.50;;
36441;SDS011;64346;50.820;16.274;2023-07-13T09:23:30;3.88;;;1.83;;
36441;SDS011;64346;50.820;16.274;2023-07-13T09:28:37;5.75;;;2.13;;
36441;SDS011;64346;50.820;16.274;2023-07-13T09:33:38;3.00;;;1.75;;
36441;SDS011;64346;50.820;16.274;2023-07-13T09:36:22;3.53;;;1.73;;
36441;SDS011;64346;50.820;16.274;2023-07-13T09:44:18;3.40;;;2.00;;
36441;SDS011;64346;50.820;16.274;2023-07-13T09:49:59;4.30;;;1.92;;
36441;SDS011;64346;50.820;16.274;2023-07-13T09:52:39;4.75;;;1.95;;
36441;SDS011;64346;50.820;16.274;2023-07-13T09:57:57;3.28;;;2.22;;
36441;SDS011;64346;50.820;16.274;2023-07-13T10:00:26;4.57;;;1.90;;
36441;SDS011;64346;50.820;16.274;2023-07-13T10:03:04;3.45;;;1.77;;
36441;SDS011;64346;50.820;16.274;2023-07-13T10:05:46;8.18;;;4.95;;
36441;SDS011;64346;50.820;16.274;2023-07-13T10:13:40;2.70;;;1.63;;
36441;SDS011;64346;50.820;16.274;2023-07-13T10:16:12;2.25;;;1.40;;
36441;SDS011;64346;50.820;16.274;2023-07-13T10:18:49;2.95;;;1.75;;
36441;SDS011;64346;50.820;16.274;2023-07-13T10:21:21;2.25;;;1.30;;
36441;SDS011;64346;50.820;16.274;2023-07-13T10:26:48;4.30;;;2.00;;
36441;SDS011;64346;50.820;16.274;2023-07-13T10:29:23;3.78;;;1.95;;
36441;SDS011;64346;50.820;16.274;2023-07-13T10:31:53;2.47;;;1.80;;
36441;SDS011;64346;50.820;16.274;2023-07-13T10:34:21;6.15;;;2.13;;
36441;SDS011;64346;50.820;16.274;2023-07-13T10:36:49;3.28;;;1.75;;
36441;SDS011;64346;50.820;16.274;2023-07-13T10:41:54;2.50;;;1.17;;
36441;SDS011;64346;50.820;16.274;2023-07-13T10:44:27;2.95;;;1.88;;
36441;SDS011;64346;50.820;16.274;2023-07-13T10:47:04;7.15;;;2.40;;
36441;SDS011;64346;50.820;16.274;2023-07-13T10:49:37;3.53;;;1.80;;
36441;SDS011;64346;50.820;16.274;2023-07-13T10:52:06;4.05;;;1.90;;
36441;SDS011;64346;50.820;16.274;2023-07-13T10:54:57;2.63;;;1.65;;
36441;SDS011;64346;50.820;16.274;2023-07-13T10:57:25;3.53;;;1.95;;
36441;SDS011;64346;50.820;16.274;2023-07-13T11:02:29;4.15;;;2.33;;
36441;SDS011;64346;50.820;16.274;2023-07-13T11:04:59;4.72;;;1.67;;
36441;SDS011;64346;50.820;16.274;2023-07-13T11:08:03;3.75;;;1.60;;
36441;SDS011;64346;50.820;16.274;2023-07-13T11:10:52;4.45;;;1.70;;
36441;SDS011;64346;50.820;16.274;2023-07-13T11:19:08;3.88;;;1.90;;
36441;SDS011;64346;50.820;16.274;2023-07-13T11:25:20;3.65;;;1.80;;
36441;SDS011;64346;50.820;16.274;2023-07-13T11:27:45;4.38;;;1.75;;
36441;SDS011;64346;50.820;16.274;2023-07-13T11:38:35;4.35;;;1.80;;
36441;SDS011;64346;50.820;16.274;2023-07-13T11:41:06;4.93;;;2.50;;
36441;SDS011;64346;50.820;16.274;2023-07-13T11:43:49;4.63;;;2.10;;
36441;SDS011;64346;50.820;16.274;2023-07-13T11:46:21;3.92;;;1.83;;
36441;SDS011;64346;50.820;16.274;2023-07-13T11:48:51;3.20;;;1.85;;
36441;SDS011;64346;50.820;16.274;2023-07-13T11:51:23;3.80;;;2.00;;
36441;SDS011;64346;50.820;16.274;2023-07-13T11:54:01;6.22;;;2.17;;
36441;SDS011;64346;50.820;16.274;2023-07-13T11:56:33;4.00;;;2.00;;
36441;SDS011;64346;50.820;16.274;2023-07-13T11:59:04;4.65;;;2.58;;
36441;SDS011;64346;50.820;16.274;2023-07-13T12:01:42;4.70;;;1.88;;
36441;SDS011;64346;50.820;16.274;2023-07-13T12:04:20;2.45;;;1.30;;
36441;SDS011;64346;50.820;16.274;2023-07-13T12:06:56;3.67;;;1.75;;
36441;SDS011;64346;50.820;16.274;2023-07-13T12:09:46;3.17;;;1.90;;
36441;SDS011;64346;50.820;16.274;2023-07-13T12:12:15;3.55;;;1.42;;
36441;SDS011;64346;50.820;16.274;2023-07-13T12:14:53;4.47;;;2.10;;
36441;SDS011;64346;50.820;16.274;2023-07-13T12:17:21;5.57;;;2.67;;
36441;SDS011;64346;50.820;16.274;2023-07-13T12:19:52;7.10;;;3.30;;
36441;SDS011;64346;50.820;16.274;2023-07-13T12:22:20;3.95;;;1.95;;
36441;SDS011;64346;50.820;16.274;2023-07-13T12:24:49;3.35;;;1.60;;
36441;SDS011;64346;50.820;16.274;2023-07-13T12:27:22;5.22;;;2.20;;
36441;SDS011;64346;50.820;16.274;2023-07-13T12:30:01;3.70;;;1.95;;
36441;SDS011;64346;50.820;16.274;2023-07-13T12:32:30;3.50;;;1.90;;
36441;SDS011;64346;50.820;16.274;2023-07-13T12:35:31;5.60;;;2.08;;
36441;SDS011;64346;50.820;16.274;2023-07-13T12:37:53;3.65;;;1.85;;
36441;SDS011;64346;50.820;16.274;2023-07-13T12:40:28;6.03;;;3.00;;
36441;SDS011;64346;50.820;16.274;2023-07-13T12:43:03;5.25;;;2.20;;
36441;SDS011;64346;50.820;16.274;2023-07-13T12:45:30;5.28;;;2.03;;
36441;SDS011;64346;50.820;16.274;2023-07-13T12:48:05;6.28;;;2.00;;
36441;SDS011;64346;50.820;16.274;2023-07-13T12:50:41;6.75;;;3.25;;
36441;SDS011;64346;50.820;16.274;2023-07-13T12:53:14;7.93;;;4.32;;
36441;SDS011;64346;50.820;16.274;2023-07-13T12:55:44;3.30;;;2.00;;
36441;SDS011;64346;50.820;16.274;2023-07-13T12:58:17;3.30;;;2.00;;
36441;SDS011;64346;50.820;16.274;2023-07-13T13:00:54;4.88;;;2.58;;
36441;SDS011;64346;50.820;16.274;2023-07-13T13:03:34;6.43;;;1.95;;
36441;SDS011;64346;50.820;16.274;2023-07-13T13:08:48;5.50;;;2.22;;
36441;SDS011;64346;50.820;16.274;2023-07-13T13:11:20;4.22;;;1.80;;
36441;SDS011;64346;50.820;16.274;2023-07-13T13:13:51;11.88;;;6.22;;
36441;SDS011;64346;50.820;16.274;2023-07-13T13:19:13;6.97;;;2.20;;
36441;SDS011;64346;50.820;16.274;2023-07-13T13:21:42;9.25;;;3.65;;
36441;SDS011;64346;50.820;16.274;2023-07-13T13:24:18;4.95;;;2.40;;
36441;SDS011;64346;50.820;16.274;2023-07-13T13:26:50;4.95;;;2.60;;
36441;SDS011;64346;50.820;16.274;2023-07-13T13:29:20;7.93;;;2.60;;
36441;SDS011;64346;50.820;16.274;2023-07-13T13:34:38;9.18;;;1.80;;
36441;SDS011;64346;50.820;16.274;2023-07-13T13:37:19;4.45;;;2.00;;
36441;SDS011;64346;50.820;16.274;2023-07-13T13:39:49;4.55;;;2.47;;
36441;SDS011;64346;50.820;16.274;2023-07-13T13:42:35;4.40;;;2.33;;
36441;SDS011;64346;50.820;16.274;2023-07-13T13:45:02;3.65;;;2.00;;
36441;SDS011;64346;50.820;16.274;2023-07-13T13:47:30;7.15;;;2.35;;
36441;SDS011;64346;50.820;16.274;2023-07-13T13:50:04;4.70;;;1.60;;
36441;SDS011;64346;50.820;16.274;2023-07-13T13:52:42;4.57;;;2.20;;
36441;SDS011;64346;50.820;16.274;2023-07-13T13:55:15;5.78;;;2.55;;
36441;SDS011;64346;50.820;16.274;2023-07-13T13:57:47;5.72;;;2.28;;
36441;SDS011;64346;50.820;16.274;2023-07-13T14:00:20;8.55;;;3.08;;
36441;SDS011;64346;50.820;16.274;2023-07-13T14:02:48;7.32;;;3.15;;
36441;SDS011;64346;50.820;16.274;2023-07-13T14:05:18;4.25;;;2.00;;
36441;SDS011;64346;50.820;16.274;2023-07-13T14:07:49;6.10;;;2.28;;
36441;SDS011;64346;50.820;16.274;2023-07-13T14:10:19;2.97;;;2.13;;
36441;SDS011;64346;50.820;16.274;2023-07-13T14:12:47;9.23;;;3.25;;
36441;SDS011;64346;50.820;16.274;2023-07-13T14:15:20;3.92;;;2.20;;
36441;SDS011;64346;50.820;16.274;2023-07-13T14:17:57;10.68;;;4.47;;
36441;SDS011;64346;50.820;16.274;2023-07-13T14:20:25;6.63;;;3.65;;
36441;SDS011;64346;50.820;16.274;2023-07-13T14:22:54;4.60;;;2.17;;
36441;SDS011;64346;50.820;16.274;2023-07-13T14:25:22;6.07;;;3.28;;
36441;SDS011;64346;50.820;16.274;2023-07-13T14:27:51;7.93;;;2.50;;
36441;SDS011;64346;50.820;16.274;2023-07-13T14:30:24;4.68;;;1.95;;
36441;SDS011;64346;50.820;16.274;2023-07-13T14:32:51;4.30;;;1.85;;
36441;SDS011;64346;50.820;16.274;2023-07-13T14:35:22;7.65;;;2.25;;
36441;SDS011;64346;50.820;16.274;2023-07-13T14:37:49;5.13;;;2.35;;
36441;SDS011;64346;50.820;16.274;2023-07-13T14:40:19;5.18;;;2.22;;
36441;SDS011;64346;50.820;16.274;2023-07-13T14:42:52;5.18;;;2.00;;
36441;SDS011;64346;50.820;16.274;2023-07-13T14:45:20;3.95;;;1.90;;
36441;SDS011;64346;50.820;16.274;2023-07-13T14:47:50;6.13;;;3.55;;
36441;SDS011;64346;50.820;16.274;2023-07-13T14:50:20;5.22;;;2.13;;
36441;SDS011;64346;50.820;16.274;2023-07-13T14:52:53;6.93;;;2.60;;
36441;SDS011;64346;50.820;16.274;2023-07-13T14:55:20;4.55;;;2.33;;
36441;SDS011;64346;50.820;16.274;2023-07-13T14:57:50;4.78;;;2.00;;
36441;SDS011;64346;50.820;16.274;2023-07-13T15:00:20;3.67;;;2.20;;
36441;SDS011;64346;50.820;16.274;2023-07-13T15:02:51;4.65;;;1.60;;
36441;SDS011;64346;50.820;16.274;2023-07-13T15:05:21;4.57;;;2.10;;
36441;SDS011;64346;50.820;16.274;2023-07-13T15:07:51;6.40;;;3.00;;
36441;SDS011;64346;50.820;16.274;2023-07-13T15:10:23;6.40;;;3.15;;
36441;SDS011;64346;50.820;16.274;2023-07-13T15:15:19;5.13;;;2.20;;
36441;SDS011;64346;50.820;16.274;2023-07-13T15:17:49;2.97;;;1.88;;
36441;SDS011;64346;50.820;16.274;2023-07-13T15:22:59;5.47;;;2.25;;
36441;SDS011;64346;50.820;16.274;2023-07-13T15:25:30;6.13;;;3.17;;
36441;SDS011;64346;50.820;16.274;2023-07-13T15:28:02;7.10;;;2.20;;
36441;SDS011;64346;50.820;16.274;2023-07-13T15:30:31;5.55;;;2.42;;
36441;SDS011;64346;50.820;16.274;2023-07-13T15:35:53;6.38;;;1.98;;
36441;SDS011;64346;50.820;16.274;2023-07-13T15:38:25;6.57;;;1.90;;
36441;SDS011;64346;50.820;16.274;2023-07-13T15:40:55;5.15;;;2.15;;
36441;SDS011;64346;50.820;16.274;2023-07-13T15:43:23;4.97;;;2.78;;
36441;SDS011;64346;50.820;16.274;2023-07-13T15:45:52;7.80;;;3.03;;
36441;SDS011;64346;50.820;16.274;2023-07-13T15:48:25;4.90;;;2.22;;
36441;SDS011;64346;50.820;16.274;2023-07-13T15:50:54;5.43;;;1.90;;
36441;SDS011;64346;50.820;16.274;2023-07-13T15:53:30;4.38;;;2.00;;
36441;SDS011;64346;50.820;16.274;2023-07-13T15:56:02;5.85;;;2.60;;
36441;SDS011;64346;50.820;16.274;2023-07-13T15:58:43;7.70;;;2.17;;
36441;SDS011;64346;50.820;16.274;2023-07-13T16:01:11;17.85;;;11.93;;
36441;SDS011;64346;50.820;16.274;2023-07-13T16:03:38;10.02;;;5.93;;
36441;SDS011;64346;50.820;16.274;2023-07-13T16:06:25;7.38;;;2.30;;
36441;SDS011;64346;50.820;16.274;2023-07-13T16:09:01;5.65;;;2.50;;
36441;SDS011;64346;50.820;16.274;2023-07-13T16:11:41;6.50;;;2.20;;
36441;SDS011;64346;50.820;16.274;2023-07-13T16:14:09;4.25;;;2.22;;